Time;durP1;ratioP1;P1;durP2;ratioP2;P2;SDS_P1;SDS_P2;PMS_P1;PMS_P2;Temp;Humidity;BMP_temperature;BMP_pressure;BME280_temperature;BME280_humidity;BME280_pressure;Samples;Min_cycle;Max_cycle;Signal;HPM_P1;HPM_P2
2021/01/16 00:00:57;;;;;;;6.53;2.50;;;5.50;99.90;;;;;;4716935;30;20483;-81
2021/01/16 00:03:24;;;;;;;6.15;2.60;;;5.50;99.90;;;;;;4716582;30;20456;-81
2021/01/16 00:05:53;;;;;;;10.35;4.00;;;5.50;99.90;;;;;;4716474;30;20407;-81
2021/01/16 00:08:23;;;;;;;5.22;2.22;;;5.50;99.90;;;;;;4717618;30;20499;-81
2021/01/16 00:10:55;;;;;;;4.97;2.60;;;5.50;99.90;;;;;;4718145;30;20538;-81
2021/01/16 00:13:29;;;;;;;5.97;2.88;;;5.50;99.90;;;;;;4716486;30;20041;-81
2021/01/16 00:15:56;;;;;;;5.25;3.03;;;5.50;99.90;;;;;;4717870;30;20475;-81
2021/01/16 00:18:24;;;;;;;5.57;3.17;;;5.50;99.90;;;;;;4717858;30;20549;-81
2021/01/16 00:20:56;;;;;;;5.78;3.30;;;5.40;99.90;;;;;;4702054;30;20429;-81
2021/01/16 00:23:25;;;;;;;7.30;3.40;;;5.40;99.90;;;;;;4718179;30;20475;-81
2021/01/16 00:25:53;;;;;;;5.90;3.05;;;5.40;99.90;;;;;;4717999;30;20560;-80
2021/01/16 00:29:16;;;;;;;4.85;2.72;;;5.40;99.90;;;;;;4716397;30;20487;-81
2021/01/16 00:31:44;;;;;;;6.85;3.15;;;5.30;99.90;;;;;;4701867;30;20384;-81
2021/01/16 00:34:11;;;;;;;6.00;3.95;;;5.30;99.90;;;;;;4717668;30;20652;-81
2021/01/16 00:36:38;;;;;;;7.75;3.20;;;5.20;99.90;;;;;;4717697;30;20495;-82
2021/01/16 00:39:05;;;;;;;5.20;2.88;;;5.20;99.90;;;;;;4716299;30;20478;-81
2021/01/16 00:41:32;;;;;;;4.85;3.05;;;5.20;99.90;;;;;;4716322;30;20391;-82
2021/01/16 00:43:58;;;;;;;6.80;3.45;;;5.10;99.90;;;;;;4716520;30;20539;-81
2021/01/16 00:46:25;;;;;;;5.97;2.92;;;5.10;99.90;;;;;;4717562;30;20511;-81
2021/01/16 00:48:52;;;;;;;4.40;3.08;;;5.10;99.90;;;;;;4716778;30;20436;-82
2021/01/16 00:51:19;;;;;;;5.75;3.03;;;5.10;99.90;;;;;;4716209;30;20446;-83
2021/01/16 00:53:46;;;;;;;5.20;2.80;;;5.00;99.90;;;;;;4701843;30;20045;-81
2021/01/16 00:56:13;;;;;;;9.50;3.50;;;5.00;99.90;;;;;;4716103;30;20483;-82
2021/01/16 00:59:01;;;;;;;4.97;2.78;;;5.00;99.90;;;;;;4704490;30;20037;-82
2021/01/16 01:01:41;;;;;;;5.20;3.22;;;5.00;99.90;;;;;;4705103;30;20511;-82
2021/01/16 01:04:10;;;;;;;6.22;3.03;;;5.00;99.90;;;;;;4719594;30;20483;-82
2021/01/16 01:06:37;;;;;;;7.35;3.63;;;5.00;99.90;;;;;;4719142;30;20518;-80
2021/01/16 01:09:04;;;;;;;6.45;3.25;;;5.00;99.90;;;;;;4719497;30;20487;-82
2021/01/16 01:11:31;;;;;;;9.20;3.45;;;5.00;99.90;;;;;;4719504;30;20517;-81
2021/01/16 01:13:58;;;;;;;7.35;3.58;;;5.00;99.90;;;;;;4704668;30;20498;-80
2021/01/16 01:16:25;;;;;;;4.57;2.88;;;5.00;99.90;;;;;;4719156;30;20521;-81
2021/01/16 01:18:53;;;;;;;9.38;3.50;;;5.10;99.90;;;;;;4704657;30;20037;-80
2021/01/16 01:21:21;;;;;;;5.90;2.97;;;5.20;99.90;;;;;;4720488;30;20029;-81
2021/01/16 01:23:48;;;;;;;6.22;2.95;;;5.30;99.90;;;;;;4704588;30;20037;-79
2021/01/16 01:26:15;;;;;;;6.57;2.97;;;5.30;99.90;;;;;;4719952;30;20045;-79
2021/01/16 01:28:42;;;;;;;7.35;3.67;;;5.30;99.90;;;;;;4720056;30;20483;-79
2021/01/16 01:31:09;;;;;;;7.45;3.28;;;5.40;99.90;;;;;;4719144;30;20083;-79
2021/01/16 01:33:36;;;;;;;5.68;3.38;;;5.40;99.90;;;;;;4719960;30;20635;-79
2021/01/16 01:36:03;;;;;;;5.30;3.20;;;5.40;99.90;;;;;;4720014;30;20045;-79
2021/01/16 01:38:30;;;;;;;11.63;2.95;;;5.40;99.90;;;;;;4720282;30;20511;-79
2021/01/16 01:41:01;;;;;;;5.32;2.88;;;5.50;99.90;;;;;;4719159;30;20483;-79
2021/01/16 01:43:28;;;;;;;6.80;3.58;;;5.50;99.90;;;;;;4720261;30;20464;-79
2021/01/16 01:45:55;;;;;;;4.53;2.83;;;5.50;99.90;;;;;;4719981;30;20495;-79
2021/01/16 01:48:23;;;;;;;5.95;2.88;;;5.50;99.90;;;;;;4718543;30;20517;-79
2021/01/16 01:50:50;;;;;;;11.30;3.88;;;5.50;99.90;;;;;;4719069;30;20451;-80
2021/01/16 08:18:07;;;;;;;6.32;1.52;;;7.10;96.30;;;;;;4715245;24;20435;-80
2021/01/16 08:20:43;;;;;;;2.88;1.27;;;7.20;96.30;;;;;;4756501;30;20086;-85
2021/01/16 08:23:10;;;;;;;5.45;1.58;;;7.20;96.10;;;;;;4755226;30;20036;-86
2021/01/16 08:25:38;;;;;;;2.75;1.25;;;7.20;95.90;;;;;;4753740;30;20052;-86
2021/01/16 08:28:05;;;;;;;3.70;1.88;;;7.30;96.10;;;;;;4746926;30;20039;-86
2021/01/16 08:30:34;;;;;;;3.92;1.60;;;7.40;96.00;;;;;;4743464;30;20126;-83
2021/01/16 08:33:06;;;;;;;1.42;0.80;;;7.40;96.00;;;;;;4745728;30;20048;-83
2021/01/16 08:35:46;;;;;;;5.03;1.80;;;7.30;95.50;;;;;;4733420;30;20036;-83
2021/01/16 08:38:17;;;;;;;4.60;1.45;;;7.30;95.80;;;;;;4744510;30;20035;-83
2021/01/16 08:41:08;;;;;;;5.20;1.90;;;7.20;95.40;;;;;;4748212;30;20028;-83
2021/01/16 08:43:43;;;;;;;1.63;1.10;;;7.30;95.60;;;;;;4746844;30;20127;-83
2021/01/16 08:46:37;;;;;;;3.38;1.38;;;7.40;95.30;;;;;;4746402;30;20052;-83
2021/01/16 08:49:04;;;;;;;8.23;1.70;;;7.40;95.60;;;;;;4744534;30;20520;-83
2021/01/16 08:51:41;;;;;;;6.80;1.52;;;7.40;95.40;;;;;;4746840;30;20546;-83
2021/01/16 08:54:18;;;;;;;4.22;1.23;;;7.40;95.40;;;;;;4745352;30;20051;-82
2021/01/16 08:56:46;;;;;;;3.58;1.60;;;7.50;94.20;;;;;;4745741;30;20032;-84
2021/01/16 08:59:28;;;;;;;5.63;1.45;;;7.50;94.50;;;;;;4745817;30;20044;-83
2021/01/16 09:02:04;;;;;;;6.40;1.77;;;7.60;94.20;;;;;;4747565;30;20036;-84
2021/01/16 09:04:32;;;;;;;3.35;1.48;;;7.60;93.90;;;;;;4746147;30;20127;-79
2021/01/16 09:07:20;;;;;;;3.88;1.95;;;7.70;93.70;;;;;;4744619;30;20528;-80
2021/01/16 09:09:57;;;;;;;4.55;1.75;;;7.70;93.10;;;;;;4744053;30;20055;-79
2021/01/16 09:12:36;;;;;;;3.47;1.50;;;7.80;93.30;;;;;;4744542;30;20035;-84
2021/01/16 09:15:25;;;;;;;0.85;0.70;;;7.70;92.50;;;;;;4745923;30;20048;-84
2021/01/16 09:18:01;;;;;;;2.72;1.27;;;7.60;91.90;;;;;;4750251;30;20482;-82
2021/01/16 09:20:29;;;;;;;2.33;1.45;;;7.60;92.30;;;;;;4748734;30;20060;-84
2021/01/16 09:22:55;;;;;;;1.85;1.10;;;7.80;93.10;;;;;;4740166;30;20036;-84
2021/01/16 09:25:25;;;;;;;3.85;2.25;;;7.80;92.70;;;;;;4743932;30;20375;-84
2021/01/16 09:27:53;;;;;;;2.22;1.10;;;7.60;92.70;;;;;;4742652;30;20543;-84
2021/01/16 09:30:24;;;;;;;3.05;1.30;;;7.50;92.30;;;;;;4740425;30;20040;-85
2021/01/16 09:32:51;;;;;;;1.38;0.80;;;7.50;92.60;;;;;;4744813;30;20039;-85
2021/01/16 09:35:38;;;;;;;3.40;1.60;;;7.60;93.00;;;;;;4741252;30;20111;-85
2021/01/16 09:38:15;;;;;;;1.83;1.30;;;7.80;92.40;;;;;;4743322;30;20028;-85
2021/01/16 09:40:43;;;;;;;2.55;1.17;;;7.90;91.90;;;;;;4745267;30;20032;-84
2021/01/16 09:43:26;;;;;;;3.08;1.63;;;8.00;91.40;;;;;;4740776;30;20176;-83
2021/01/16 09:46:01;;;;;;;1.27;0.93;;;8.00;91.80;;;;;;4741828;30;20394;-84
2021/01/16 09:48:41;;;;;;;3.78;0.90;;;8.10;91.30;;;;;;4744050;30;20132;-84
2021/01/16 09:51:09;;;;;;;1.52;1.25;;;8.10;91.30;;;;;;4742138;30;20281;-87
2021/01/16 09:53:36;;;;;;;5.85;1.10;;;8.10;90.90;;;;;;4747892;30;20093;-82
2021/01/16 09:56:04;;;;;;;4.13;1.63;;;8.10;90.50;;;;;;4741278;30;20075;-83
2021/01/16 09:58:40;;;;;;;4.53;1.33;;;8.30;90.90;;;;;;4738545;30;20043;-84
2021/01/16 10:01:18;;;;;;;2.88;0.90;;;8.40;90.80;;;;;;4739333;30;20047;-84
2021/01/16 10:03:45;;;;;;;1.38;0.70;;;8.30;89.40;;;;;;4739074;30;20091;-84
2021/01/16 10:06:17;;;;;;;3.55;1.33;;;8.40;88.40;;;;;;4741600;30;20039;-81
2021/01/16 10:08:43;;;;;;;2.55;1.00;;;8.60;90.30;;;;;;4742862;30;20033;-83
2021/01/16 10:11:11;;;;;;;2.88;1.08;;;8.90;90.40;;;;;;4738194;30;20041;-83
2021/01/16 10:13:39;;;;;;;6.35;1.00;;;8.80;88.10;;;;;;4741067;30;20370;-84
2021/01/16 10:16:11;;;;;;;1.90;1.48;;;8.70;87.90;;;;;;4728868;30;20393;-86
2021/01/16 10:18:40;;;;;;;1.65;1.00;;;8.80;87.80;;;;;;4743767;30;20093;-83
2021/01/16 10:21:11;;;;;;;3.20;1.27;;;8.70;88.30;;;;;;4743501;30;20040;-91
2021/01/16 10:23:42;;;;;;;4.10;0.90;;;8.50;88.90;;;;;;4756314;30;20123;-87
2021/01/16 10:26:12;;;;;;;3.95;0.90;;;8.70;89.90;;;;;;4729631;30;20044;-88
2021/01/16 10:28:59;;;;;;;5.30;1.63;;;8.70;89.30;;;;;;4738521;30;20041;-90
2021/01/16 10:31:27;;;;;;;2.75;1.25;;;8.60;89.00;;;;;;4724503;30;20044;-89
2021/01/16 10:34:06;;;;;;;2.92;1.35;;;8.70;88.20;;;;;;4729118;30;20041;-89
2021/01/16 10:36:33;;;;;;;4.10;1.10;;;8.70;87.00;;;;;;4726808;30;20050;-87
2021/01/16 10:39:17;;;;;;;3.65;1.73;;;8.60;87.10;;;;;;4728369;30;20032;-86
2021/01/16 10:41:46;;;;;;;3.97;1.05;;;8.80;88.60;;;;;;4723653;30;20036;-82
2021/01/16 10:44:21;;;;;;;2.20;1.00;;;8.80;86.70;;;;;;4730783;30;20036;-81
2021/01/16 10:46:51;;;;;;;3.05;1.33;;;9.00;85.30;;;;;;4760658;30;20059;-83
2021/01/16 10:49:23;;;;;;;3.83;1.73;;;8.90;85.60;;;;;;4752583;30;20028;-89
2021/01/16 10:51:52;;;;;;;3.45;1.05;;;9.00;86.30;;;;;;4746128;30;20124;-86
2021/01/16 10:54:19;;;;;;;5.35;1.23;;;9.00;85.50;;;;;;4721477;30;20122;-84
2021/01/16 10:57:16;;;;;;;2.47;1.05;;;9.10;85.10;;;;;;4744082;30;20557;-87
2021/01/16 10:59:56;;;;;;;1.45;0.77;;;9.10;84.00;;;;;;4725413;30;20190;-87
2021/01/16 11:02:36;;;;;;;2.38;1.02;;;9.30;83.90;;;;;;4735140;30;20051;-85
2021/01/16 11:05:21;;;;;;;6.72;1.35;;;9.30;84.90;;;;;;4726571;30;20403;-82
2021/01/16 11:07:51;;;;;;;1.13;0.90;;;9.40;84.40;;;;;;4746073;30;20071;-83
2021/01/16 11:10:31;;;;;;;1.30;0.63;;;9.40;84.50;;;;;;4734143;30;20067;-84
2021/01/16 11:13:19;;;;;;;5.97;1.20;;;9.30;85.30;;;;;;4756404;30;20414;-83
2021/01/16 11:15:48;;;;;;;1.92;1.20;;;9.40;86.00;;;;;;4753482;30;20036;-84
2021/01/16 11:18:31;;;;;;;2.75;0.80;;;9.50;85.70;;;;;;4738776;30;20036;-84
2021/01/16 11:21:06;;;;;;;4.45;1.65;;;9.10;86.20;;;;;;4743085;30;20055;-83
2021/01/16 11:23:57;;;;;;;1.45;1.27;;;9.00;87.80;;;;;;4754383;30;20042;-84
2021/01/16 11:26:25;;;;;;;1.98;1.50;;;9.00;87.90;;;;;;4749602;30;20497;-83
2021/01/16 11:28:54;;;;;;;2.53;1.25;;;9.20;87.50;;;;;;4750561;30;20489;-81
2021/01/16 11:31:34;;;;;;;2.65;0.90;;;8.90;85.60;;;;;;4733873;30;20568;-80
2021/01/16 11:34:00;;;;;;;3.03;1.50;;;8.70;87.80;;;;;;4745014;30;20036;-81
2021/01/16 11:36:27;;;;;;;3.50;1.05;;;9.00;88.60;;;;;;4740203;30;20076;-81
2021/01/16 11:38:53;;;;;;;2.80;0.90;;;9.20;87.80;;;;;;4743820;30;20060;-81
2021/01/16 11:41:52;;;;;;;2.63;1.10;;;9.00;86.60;;;;;;4723925;30;20044;-80
2021/01/16 11:44:21;;;;;;;3.10;0.98;;;8.80;87.30;;;;;;4737843;30;20040;-81
2021/01/16 11:46:51;;;;;;;7.55;2.13;;;8.80;85.70;;;;;;4742300;30;20048;-82
2021/01/16 11:49:18;;;;;;;3.83;0.90;;;8.80;87.90;;;;;;4738885;30;20086;-87
2021/01/16 11:51:44;;;;;;;6.20;2.60;;;8.90;85.30;;;;;;4721933;30;20041;-84
2021/01/16 11:54:10;;;;;;;8.82;1.70;;;8.90;86.50;;;;;;4717359;30;20036;-86
2021/01/16 11:56:38;;;;;;;5.28;0.68;;;9.00;85.80;;;;;;4736244;30;20043;-84
2021/01/16 11:59:05;;;;;;;2.70;1.75;;;8.70;85.80;;;;;;4766122;30;20652;-82
2021/01/16 12:01:38;;;;;;;3.08;1.90;;;8.90;87.10;;;;;;4730892;30;20131;-84
2021/01/16 12:04:05;;;;;;;2.40;0.98;;;9.00;88.50;;;;;;4748796;30;20082;-84
2021/01/16 12:06:33;;;;;;;1.55;1.10;;;9.30;85.40;;;;;;4745509;30;20417;-82
2021/01/16 12:08:59;;;;;;;1.75;0.85;;;9.60;85.80;;;;;;4740208;30;20025;-83
2021/01/16 12:11:26;;;;;;;2.13;1.17;;;9.50;84.00;;;;;;4742116;30;20040;-83
2021/01/16 12:13:52;;;;;;;1.10;0.80;;;9.40;84.20;;;;;;4737745;30;20029;-88
2021/01/16 12:16:19;;;;;;;4.82;1.23;;;9.30;84.60;;;;;;4726684;30;20049;-86
2021/01/16 12:18:46;;;;;;;4.18;1.40;;;9.40;84.60;;;;;;4732078;30;20033;-90
2021/01/16 12:21:12;;;;;;;3.90;1.58;;;9.00;85.10;;;;;;4743833;30;20048;-91
2021/01/16 12:23:44;;;;;;;5.15;1.80;;;8.60;85.00;;;;;;4749612;30;20032;-93
2021/01/16 12:26:13;;;;;;;2.50;1.40;;;8.70;86.70;;;;;;4733825;30;20041;-93
2021/01/16 12:28:47;;;;;;;2.38;1.33;;;9.00;87.50;;;;;;4735911;30;20035;-94
2021/01/16 12:31:22;;;;;;;3.45;1.27;;;9.10;85.70;;;;;;4752857;30;20034;-93
2021/01/16 12:33:48;;;;;;;2.97;1.20;;;8.90;85.30;;;;;;4755660;30;20036;-90
2021/01/16 12:36:14;;;;;;;2.72;1.10;;;8.90;85.70;;;;;;4734892;30;20049;-90
2021/01/16 12:38:41;;;;;;;2.13;0.90;;;9.20;85.10;;;;;;4730754;30;20060;-89
2021/01/16 12:41:07;;;;;;;2.83;1.60;;;9.40;85.30;;;;;;4752482;30;20043;-90
2021/01/16 12:43:33;;;;;;;3.17;1.70;;;9.50;85.80;;;;;;4746007;30;20036;-90
2021/01/16 12:46:06;;;;;;;3.58;1.05;;;9.30;85.50;;;;;;4734691;30;20107;-89
2021/01/16 12:48:32;;;;;;;1.00;0.70;;;9.30;86.70;;;;;;4727564;30;20028;-91
2021/01/16 12:51:04;;;;;;;1.25;0.73;;;9.30;85.10;;;;;;4752390;30;20035;-90
2021/01/16 12:53:30;;;;;;;3.22;0.98;;;9.10;85.90;;;;;;4746173;30;20498;-89
2021/01/16 12:55:57;;;;;;;2.45;1.00;;;8.60;87.00;;;;;;4723335;30;20094;-88
2021/01/16 12:58:22;;;;;;;2.58;1.10;;;8.20;88.30;;;;;;4724627;30;20041;-88
2021/01/16 13:00:49;;;;;;;2.15;0.65;;;7.70;90.30;;;;;;4754363;30;20404;-89
2021/01/16 13:03:15;;;;;;;1.63;1.00;;;7.40;92.00;;;;;;4755512;30;20031;-88
2021/01/16 13:05:41;;;;;;;2.78;1.30;;;7.00;93.80;;;;;;4738767;30;20040;-91
2021/01/16 13:08:13;;;;;;;6.28;1.25;;;7.00;94.50;;;;;;4748139;30;20048;-90
2021/01/16 13:10:44;;;;;;;1.63;1.33;;;6.80;95.30;;;;;;4727904;30;20123;-91
2021/01/16 13:13:11;;;;;;;2.83;1.25;;;6.60;98.50;;;;;;4735458;30;20108;-93
2021/01/16 13:15:43;;;;;;;2.83;1.20;;;6.40;99.90;;;;;;4740931;30;20371;-93
2021/01/16 13:18:19;;;;;;;3.22;1.75;;;6.10;99.90;;;;;;4725175;30;20485;-91
2021/01/16 13:20:47;;;;;;;5.30;1.50;;;6.10;99.90;;;;;;4727489;30;20056;-92
2021/01/16 13:23:15;;;;;;;1.70;1.20;;;6.00;99.90;;;;;;4744275;30;20036;-92
2021/01/16 13:25:44;;;;;;;4.60;1.50;;;6.10;99.90;;;;;;4728480;30;20067;-92
2021/01/16 13:28:14;;;;;;;5.18;2.60;;;6.30;99.90;;;;;;4721902;30;20105;-92
2021/01/16 13:30:42;;;;;;;54.38;24.30;;;7.00;99.90;;;;;;4751467;30;20462;-92
2021/01/16 13:33:08;;;;;;;17.55;8.02;;;7.80;99.90;;;;;;4769891;30;20032;-92
2021/01/16 13:35:35;;;;;;;6.15;3.33;;;8.30;99.70;;;;;;4747637;30;20044;-91
2021/01/16 13:38:01;;;;;;;6.60;2.00;;;8.70;98.40;;;;;;4734455;30;20088;-93
2021/01/16 13:40:27;;;;;;;5.43;2.97;;;9.10;96.40;;;;;;4729501;30;20545;-91
2021/01/16 13:43:05;;;;;;;2.78;1.73;;;9.20;94.50;;;;;;4729300;30;20044;-94
2021/01/16 13:45:32;;;;;;;2.97;1.08;;;9.00;86.30;;;;;;4727562;30;20066;-79
2021/01/16 13:48:02;;;;;;;0.88;0.47;;;8.80;80.30;;;;;;4743720;30;20044;-82
2021/01/16 13:50:35;;;;;;;3.70;1.27;;;8.70;77.00;;;;;;4749123;30;20032;-83
2021/01/16 13:53:12;;;;;;;6.28;1.33;;;8.60;78.70;;;;;;4750110;30;20484;-84
2021/01/16 13:55:38;;;;;;;4.30;1.00;;;8.70;80.40;;;;;;4744651;30;20453;-81
2021/01/16 13:58:12;;;;;;;1.65;0.70;;;8.70;81.50;;;;;;4745847;30;20047;-82
2021/01/16 14:00:51;;;;;;;3.25;1.58;;;8.50;82.00;;;;;;4752143;30;20044;-83
2021/01/16 14:03:27;;;;;;;3.40;1.90;;;8.70;83.70;;;;;;4752148;30;20043;-87
2021/01/16 14:06:03;;;;;;;2.85;1.30;;;8.80;83.50;;;;;;4750597;30;20044;-84
2021/01/16 14:08:29;;;;;;;1.70;1.05;;;8.90;83.00;;;;;;4737223;30;20048;-86
2021/01/16 14:11:05;;;;;;;2.83;1.15;;;8.70;82.10;;;;;;4749479;30;20454;-84
2021/01/16 14:13:40;;;;;;;4.25;1.10;;;8.30;82.80;;;;;;4751765;30;20115;-83
2021/01/16 14:16:12;;;;;;;5.00;1.70;;;8.10;83.20;;;;;;4751354;30;20123;-85
2021/01/16 14:18:40;;;;;;;2.65;1.00;;;7.90;84.10;;;;;;4749793;30;20044;-85
2021/01/16 14:21:17;;;;;;;3.30;1.77;;;7.50;83.90;;;;;;4749491;30;20067;-84
2021/01/16 14:23:44;;;;;;;4.40;2.33;;;7.40;86.40;;;;;;4763498;30;20043;-84
2021/01/16 14:26:22;;;;;;;4.28;1.65;;;7.30;87.60;;;;;;4750219;30;20059;-84
2021/01/16 14:28:51;;;;;;;3.35;1.30;;;7.20;85.90;;;;;;4750045;30;20111;-84
2021/01/16 14:31:23;;;;;;;4.32;1.17;;;7.10;86.90;;;;;;4750412;30;20037;-86
2021/01/16 14:34:00;;;;;;;2.03;0.75;;;7.10;86.40;;;;;;4736033;30;20037;-86
2021/01/16 14:36:28;;;;;;;2.05;0.98;;;7.10;86.90;;;;;;4744973;30;20064;-90
2021/01/16 14:39:15;;;;;;;5.03;1.30;;;7.10;86.80;;;;;;4749092;30;20398;-90
2021/01/16 14:41:42;;;;;;;1.95;0.90;;;7.30;87.00;;;;;;4737456;30;20044;-93
2021/01/16 14:44:17;;;;;;;1.70;1.02;;;7.50;85.80;;;;;;4753179;30;20033;-92
2021/01/16 14:47:00;;;;;;;3.88;1.10;;;7.80;85.80;;;;;;4732475;30;20057;-90
2021/01/16 14:49:34;;;;;;;1.75;1.05;;;7.90;85.90;;;;;;4729145;30;20059;-94
2021/01/16 14:52:12;;;;;;;1.45;1.10;;;7.60;83.10;;;;;;4721763;30;20040;-92
2021/01/16 14:54:46;;;;;;;3.20;1.08;;;7.50;84.50;;;;;;4763744;30;20032;-90
2021/01/16 14:57:12;;;;;;;3.75;1.23;;;7.20;83.20;;;;;;4733964;30;20037;-87
2021/01/16 14:59:40;;;;;;;3.85;1.75;;;7.10;84.10;;;;;;4734006;30;20041;-93
2021/01/16 15:02:17;;;;;;;4.85;1.30;;;7.30;85.10;;;;;;4704709;30;20402;-91
2021/01/16 15:04:44;;;;;;;1.50;1.38;;;7.40;83.00;;;;;;4734993;30;20051;-89
2021/01/16 15:07:11;;;;;;;3.60;1.10;;;7.50;82.80;;;;;;4735675;30;20051;-89
2021/01/16 15:09:41;;;;;;;4.53;0.88;;;7.30;82.30;;;;;;4735663;30;20067;-85
2021/01/16 15:12:12;;;;;;;4.20;1.05;;;7.00;80.60;;;;;;4735709;30;20080;-87
2021/01/16 15:14:41;;;;;;;3.47;1.90;;;6.80;81.50;;;;;;4746817;30;20031;-88
2021/01/16 15:17:08;;;;;;;2.58;1.17;;;6.80;82.80;;;;;;4733902;30;20033;-87
2021/01/16 15:19:35;;;;;;;6.95;0.95;;;6.70;82.40;;;;;;4721336;30;20080;-87
2021/01/16 15:22:05;;;;;;;4.20;1.48;;;6.70;81.00;;;;;;4717969;30;20040;-88
2021/01/16 15:24:33;;;;;;;3.42;1.20;;;6.70;80.80;;;;;;4741480;30;20464;-83
2021/01/16 15:27:00;;;;;;;2.17;1.00;;;6.70;80.60;;;;;;4728507;30;20502;-88
2021/01/16 15:29:29;;;;;;;8.75;1.30;;;6.60;81.10;;;;;;4745362;30;20107;-84
2021/01/16 15:31:57;;;;;;;3.78;1.27;;;6.60;79.70;;;;;;4726357;30;20051;-82
2021/01/16 15:34:35;;;;;;;4.20;1.20;;;6.40;80.90;;;;;;4725634;30;20044;-86
2021/01/16 15:37:06;;;;;;;4.50;1.98;;;6.40;80.80;;;;;;4737883;30;20040;-84
2021/01/16 15:39:46;;;;;;;3.20;1.88;;;6.30;81.70;;;;;;4739232;30;20036;-84
2021/01/16 15:42:24;;;;;;;3.55;1.35;;;6.20;81.80;;;;;;4722979;30;20040;-83
2021/01/16 15:45:04;;;;;;;3.30;1.77;;;6.20;83.50;;;;;;4743832;30;20517;-83
2021/01/16 15:47:44;;;;;;;2.63;0.60;;;6.20;83.40;;;;;;4727163;30;20056;-81
2021/01/16 15:50:15;;;;;;;3.90;1.23;;;6.10;82.70;;;;;;4736126;30;20032;-79
2021/01/16 15:52:50;;;;;;;3.22;1.67;;;6.00;82.50;;;;;;4740350;30;20036;-79
2021/01/16 15:55:17;;;;;;;5.50;2.53;;;6.00;83.00;;;;;;4720000;30;20040;-79
2021/01/16 15:57:44;;;;;;;4.60;1.98;;;6.00;82.30;;;;;;4739138;30;20029;-78
2021/01/16 16:00:31;;;;;;;4.05;2.40;;;5.90;82.90;;;;;;4739316;30;20032;-78
2021/01/16 16:03:11;;;;;;;5.30;2.63;;;5.90;83.10;;;;;;4735085;30;20507;-79
2021/01/16 16:05:40;;;;;;;4.53;2.00;;;5.90;83.80;;;;;;4736918;30;20046;-79
2021/01/16 16:08:22;;;;;;;9.55;3.00;;;5.80;84.20;;;;;;4738280;30;20444;-79
2021/01/16 16:10:50;;;;;;;7.90;1.83;;;5.80;84.60;;;;;;4739929;30;20040;-82
2021/01/16 16:13:17;;;;;;;2.53;1.33;;;5.70;84.40;;;;;;4723601;30;20036;-81
2021/01/16 16:15:47;;;;;;;1.27;1.17;;;5.70;84.70;;;;;;4741853;30;20040;-82
2021/01/16 16:18:16;;;;;;;4.53;1.58;;;5.70;84.30;;;;;;4742075;30;20124;-79
2021/01/16 16:20:43;;;;;;;3.13;0.90;;;5.70;84.40;;;;;;4740465;30;20090;-80
2021/01/16 16:23:09;;;;;;;6.18;1.52;;;5.70;83.10;;;;;;4737494;30;20043;-79
2021/01/16 16:25:36;;;;;;;2.88;1.70;;;5.70;83.60;;;;;;4740524;30;20068;-80
2021/01/16 16:28:03;;;;;;;5.75;1.48;;;5.60;84.30;;;;;;4729004;30;20515;-80
2021/01/16 16:30:29;;;;;;;5.00;2.03;;;5.60;84.00;;;;;;4737385;30;20039;-80
2021/01/16 16:32:55;;;;;;;3.08;2.03;;;5.60;83.30;;;;;;4746458;30;20555;-80
2021/01/16 16:35:22;;;;;;;4.20;1.77;;;5.60;82.90;;;;;;4726335;30;20389;-80
2021/01/16 16:37:59;;;;;;;4.80;2.17;;;5.60;83.10;;;;;;4742210;30;20059;-80
2021/01/16 16:40:30;;;;;;;3.60;1.30;;;5.50;83.50;;;;;;4742929;30;20086;-82
2021/01/16 16:42:58;;;;;;;4.53;1.77;;;5.50;83.20;;;;;;4742711;30;20124;-78
2021/01/16 16:45:25;;;;;;;3.72;1.70;;;5.50;83.10;;;;;;4738768;30;20453;-79
2021/01/16 16:47:51;;;;;;;3.85;1.20;;;5.50;83.90;;;;;;4743179;30;20041;-79
2021/01/16 16:50:17;;;;;;;3.78;1.35;;;5.50;83.30;;;;;;4747683;30;20481;-79
2021/01/16 16:52:52;;;;;;;4.80;1.73;;;5.50;83.10;;;;;;4743734;30;20118;-78
2021/01/16 16:55:20;;;;;;;4.18;1.20;;;5.50;83.60;;;;;;4742385;30;20072;-78
2021/01/16 16:57:48;;;;;;;3.88;1.60;;;5.50;84.10;;;;;;4743997;30;20516;-79
2021/01/16 17:00:17;;;;;;;11.65;1.98;;;5.50;82.30;;;;;;4741525;30;20464;-79
2021/01/16 17:02:44;;;;;;;4.97;1.55;;;5.50;82.70;;;;;;4742444;30;20028;-79
2021/01/16 17:05:11;;;;;;;2.55;1.38;;;5.60;82.00;;;;;;4745942;30;20040;-80
2021/01/16 17:07:39;;;;;;;3.22;1.10;;;5.60;82.00;;;;;;4740794;30;20045;-79
2021/01/16 17:10:07;;;;;;;2.05;0.95;;;5.60;82.90;;;;;;4742019;30;20044;-78
2021/01/16 17:12:34;;;;;;;3.38;1.33;;;5.60;83.70;;;;;;4739648;30;20040;-78
2021/01/16 17:15:03;;;;;;;3.03;1.30;;;5.50;84.10;;;;;;4741826;30;20032;-78
2021/01/16 17:17:29;;;;;;;3.90;1.25;;;5.50;83.70;;;;;;4742012;30;20032;-78
2021/01/16 17:19:55;;;;;;;1.92;1.40;;;5.60;82.10;;;;;;4726529;30;20413;-80
2021/01/16 17:22:22;;;;;;;2.45;1.58;;;5.60;82.00;;;;;;4744432;30;20565;-80
2021/01/16 17:24:48;;;;;;;6.03;1.30;;;5.50;80.80;;;;;;4743571;30;20044;-80
2021/01/16 17:27:15;;;;;;;2.53;1.05;;;5.60;81.10;;;;;;4741657;30;20375;-81
2021/01/16 17:29:42;;;;;;;4.10;1.40;;;5.60;81.40;;;;;;4727483;30;20037;-80
2021/01/16 17:32:08;;;;;;;3.90;1.65;;;5.50;81.00;;;;;;4743658;30;20036;-79
2021/01/16 17:34:34;;;;;;;3.85;1.55;;;5.50;80.70;;;;;;4745798;30;20390;-81
2021/01/16 17:37:05;;;;;;;3.28;1.55;;;5.50;81.00;;;;;;4745445;30;20033;-78
2021/01/16 17:39:33;;;;;;;4.85;2.00;;;5.50;80.70;;;;;;4740140;30;20082;-80
2021/01/16 17:41:59;;;;;;;2.45;1.40;;;5.50;80.70;;;;;;4741135;30;20033;-81
2021/01/16 17:44:26;;;;;;;11.32;5.88;;;5.50;81.50;;;;;;4728430;30;20024;-83
2021/01/16 17:46:53;;;;;;;3.95;1.45;;;5.50;82.10;;;;;;4740463;30;20137;-80
2021/01/16 17:49:19;;;;;;;7.45;2.70;;;5.40;82.80;;;;;;4744625;30;20041;-79
2021/01/16 17:51:45;;;;;;;3.72;1.52;;;5.40;83.60;;;;;;4739291;30;20036;-77
2021/01/16 17:54:12;;;;;;;4.22;1.40;;;5.40;84.10;;;;;;4741824;30;21074;-78
2021/01/16 17:56:39;;;;;;;3.42;1.52;;;5.40;84.10;;;;;;4742968;30;20038;-80
2021/01/16 17:59:06;;;;;;;1.95;0.85;;;5.30;83.50;;;;;;4742738;30;20025;-79
2021/01/16 18:01:35;;;;;;;4.97;1.25;;;5.30;82.00;;;;;;4740810;30;20098;-81
2021/01/16 18:04:02;;;;;;;1.98;0.80;;;5.40;81.00;;;;;;4741714;30;20106;-79
2021/01/16 18:06:28;;;;;;;2.00;0.90;;;5.30;80.00;;;;;;4743805;30;20044;-81
2021/01/16 18:08:54;;;;;;;2.03;1.23;;;5.30;80.40;;;;;;4739048;30;20032;-78
2021/01/16 18:11:21;;;;;;;5.82;1.27;;;5.30;80.60;;;;;;4737351;30;20033;-77
2021/01/16 18:13:47;;;;;;;1.73;0.90;;;5.30;79.60;;;;;;4739779;30;20072;-78
2021/01/16 18:16:14;;;;;;;3.05;1.00;;;5.40;79.00;;;;;;4740982;30;20517;-78
2021/01/16 18:18:41;;;;;;;1.17;0.80;;;5.30;79.00;;;;;;4742342;30;20555;-78
2021/01/16 18:21:08;;;;;;;1.38;0.80;;;5.30;79.50;;;;;;4742892;30;20056;-78
2021/01/16 18:23:35;;;;;;;2.55;0.85;;;5.30;80.30;;;;;;4740643;30;20093;-78
2021/01/16 18:26:03;;;;;;;3.45;1.30;;;5.20;80.20;;;;;;4738846;30;20633;-78
2021/01/16 18:28:29;;;;;;;1.95;0.75;;;5.30;80.40;;;;;;4741468;30;20036;-79
2021/01/16 18:30:55;;;;;;;2.70;1.45;;;5.20;80.60;;;;;;4738363;30;20032;-80
2021/01/16 18:33:22;;;;;;;3.08;1.98;;;5.20;80.00;;;;;;4741182;30;20097;-79
2021/01/16 18:35:48;;;;;;;3.45;0.70;;;5.20;80.10;;;;;;4736286;30;20395;-79
2021/01/16 18:38:14;;;;;;;2.50;1.65;;;5.20;79.40;;;;;;4743746;30;20047;-78
2021/01/16 18:40:45;;;;;;;12.48;4.57;;;5.30;79.00;;;;;;4738422;30;20091;-80
2021/01/16 18:43:11;;;;;;;4.97;2.85;;;5.20;79.00;;;;;;4740313;30;20057;-79
2021/01/16 18:45:37;;;;;;;2.05;1.33;;;5.20;78.90;;;;;;4741824;30;20039;-80
2021/01/16 18:48:04;;;;;;;3.75;1.90;;;5.20;78.90;;;;;;4739853;30;20040;-82
2021/01/16 18:50:30;;;;;;;3.22;1.45;;;5.20;78.70;;;;;;4735500;30;20044;-80
2021/01/16 18:52:57;;;;;;;3.28;1.35;;;5.20;79.20;;;;;;4724824;30;20033;-79
2021/01/16 18:55:23;;;;;;;3.72;1.70;;;5.10;79.10;;;;;;4728462;30;20036;-79
2021/01/16 18:57:49;;;;;;;1.05;0.75;;;5.10;79.10;;;;;;4738668;30;20049;-80
2021/01/16 19:00:16;;;;;;;2.25;1.27;;;5.10;78.60;;;;;;4739936;30;20044;-78
2021/01/16 19:02:43;;;;;;;3.63;1.20;;;5.10;77.90;;;;;;4741747;30;20109;-79
2021/01/16 19:05:09;;;;;;;3.95;1.77;;;5.10;77.50;;;;;;4736600;30;20724;-78
2021/01/16 19:07:35;;;;;;;3.25;1.20;;;5.10;77.40;;;;;;4737347;30;20441;-79
2021/01/16 19:10:03;;;;;;;4.88;1.55;;;5.20;77.60;;;;;;4738191;30;20470;-78
2021/01/16 19:12:29;;;;;;;4.32;2.33;;;5.20;77.80;;;;;;4739134;30;20068;-78
2021/01/16 19:14:56;;;;;;;4.63;1.58;;;5.10;78.00;;;;;;4733684;30;20094;-78
2021/01/16 19:17:22;;;;;;;3.83;2.47;;;5.10;77.80;;;;;;4735297;30;20040;-80
2021/01/16 19:19:48;;;;;;;7.53;3.50;;;5.10;78.10;;;;;;4739138;30;20072;-79
2021/01/16 19:22:14;;;;;;;5.45;2.63;;;5.10;78.80;;;;;;4746822;30;20114;-79
2021/01/16 19:24:40;;;;;;;5.22;2.33;;;5.10;78.90;;;;;;4747261;30;20554;-79
2021/01/16 19:27:07;;;;;;;4.82;1.80;;;5.10;79.10;;;;;;4748360;30;20378;-77
2021/01/16 19:29:33;;;;;;;4.28;1.98;;;5.20;79.70;;;;;;4738241;30;20039;-80
2021/01/16 19:32:00;;;;;;;3.05;1.63;;;5.10;79.90;;;;;;4736552;30;20032;-79
2021/01/16 19:34:26;;;;;;;4.30;1.60;;;5.20;80.70;;;;;;4738869;30;20067;-80
2021/01/16 19:36:52;;;;;;;3.70;1.85;;;5.10;81.50;;;;;;4738621;30;20059;-80
2021/01/16 19:39:20;;;;;;;3.67;1.40;;;5.20;81.70;;;;;;4725901;30;20481;-81